Time;durP1;ratioP1;P1;durP2;ratioP2;P2;SDS_P1;SDS_P2;PMS_P1;PMS_P2;Temp;Humidity;BMP_temperature;BMP_pressure;BME280_temperature;BME280_humidity;BME280_pressure;Samples;Min_cycle;Max_cycle;Signal;HPM_P1;HPM_P2
2022/01/29 00:02:04;;;;;;;;;;;14.80;55.00;;;;;;5013717;28;20007;-74
2022/01/29 00:04:30;;;;;;;;;;;14.80;55.10;;;;;;5014774;28;20012;-74
2022/01/29 00:06:57;;;;;;;;;;;14.80;55.10;;;;;;5013565;28;20021;-74
2022/01/29 00:09:25;;;;;;;;;;;14.70;55.00;;;;;;5013327;28;20021;-72
2022/01/29 00:11:51;;;;;;;;;;;14.70;55.00;;;;;;5013098;28;20746;-74
2022/01/29 00:14:18;;;;;;;;;;;14.70;55.00;;;;;;5013613;28;19964;-74
2022/01/29 00:16:44;;;;;;;;;;;14.70;55.00;;;;;;5013366;28;20127;-74
2022/01/29 00:19:11;;;;;;;;;;;14.70;55.10;;;;;;5013511;28;20433;-74
2022/01/29 00:21:38;;;;;;;;;;;14.70;55.20;;;;;;5013471;28;20008;-74
2022/01/29 00:24:05;;;;;;;;;;;14.70;55.10;;;;;;5013256;28;19935;-74
2022/01/29 00:26:33;;;;;;;;;;;14.70;55.10;;;;;;5014158;28;20025;-74
2022/01/29 00:29:04;;;;;;;;;;;14.60;55.10;;;;;;5013023;28;20004;-74
2022/01/29 00:31:31;;;;;;;;;;;14.70;55.20;;;;;;5013109;28;19930;-74
2022/01/29 00:33:58;;;;;;;;;;;14.70;55.20;;;;;;5013225;28;19952;-74
2022/01/29 00:36:24;;;;;;;;;;;14.60;55.10;;;;;;5012621;28;19929;-73
2022/01/29 00:38:51;;;;;;;;;;;14.60;55.20;;;;;;5013193;28;20004;-74
2022/01/29 00:41:18;;;;;;;;;;;14.60;55.20;;;;;;5012550;28;19926;-74
2022/01/29 00:43:46;;;;;;;;;;;14.60;55.20;;;;;;5012984;28;19972;-72
2022/01/29 00:46:12;;;;;;;;;;;14.60;55.20;;;;;;5012516;28;19961;-73
2022/01/29 00:48:39;;;;;;;;;;;14.60;55.30;;;;;;5012748;28;20004;-74
2022/01/29 00:51:05;;;;;;;;;;;14.60;55.30;;;;;;5012868;28;19932;-74
2022/01/29 00:53:32;;;;;;;;;;;14.60;55.30;;;;;;5012548;28;20012;-74
2022/01/29 00:55:59;;;;;;;;;;;14.60;55.30;;;;;;5012549;28;20334;-73
2022/01/29 00:58:25;;;;;;;;;;;14.50;55.20;;;;;;5012711;28;19929;-74
2022/01/29 01:00:53;;;;;;;;;;;14.50;55.20;;;;;;5012740;28;19979;-74
2022/01/29 01:03:20;;;;;;;;;;;14.50;55.30;;;;;;5013689;28;20473;-74
2022/01/29 01:05:46;;;;;;;;;;;14.50;55.30;;;;;;5011777;28;20008;-74
2022/01/29 01:08:13;;;;;;;;;;;14.60;56.00;;;;;;5012275;28;19926;-72
2022/01/29 01:10:40;;;;;;;;;;;14.50;55.30;;;;;;5012503;28;20434;-74
2022/01/29 01:13:06;;;;;;;;;;;14.50;55.30;;;;;;5012162;28;19984;-74
2022/01/29 01:15:33;;;;;;;;;;;14.50;55.30;;;;;;5012261;28;20013;-74
2022/01/29 01:18:01;;;;;;;;;;;14.50;55.30;;;;;;5012093;28;20433;-72
2022/01/29 01:20:27;;;;;;;;;;;14.50;55.30;;;;;;5012447;28;19972;-74
2022/01/29 01:22:54;;;;;;;;;;;14.50;55.30;;;;;;5012235;28;20012;-74
2022/01/29 01:25:20;;;;;;;;;;;14.40;55.30;;;;;;5012285;28;20445;-74
2022/01/29 01:27:47;;;;;;;;;;;14.40;55.30;;;;;;5013177;28;19979;-74
2022/01/29 01:30:14;;;;;;;;;;;14.40;55.30;;;;;;5013067;28;19925;-73
2022/01/29 01:32:40;;;;;;;;;;;14.40;55.30;;;;;;5012061;28;20416;-74
2022/01/29 01:35:15;;;;;;;;;;;14.40;55.30;;;;;;5011849;28;19926;-74
2022/01/29 01:37:47;;;;;;;;;;;14.40;55.30;;;;;;5011979;28;20100;-74
2022/01/29 01:40:14;;;;;;;;;;;14.40;55.40;;;;;;5012040;28;20424;-74
2022/01/29 01:42:40;;;;;;;;;;;14.40;55.40;;;;;;5011719;28;19938;-74
2022/01/29 01:45:09;;;;;;;;;;;14.40;55.40;;;;;;5011250;28;20224;-74
2022/01/29 01:47:36;;;;;;;;;;;14.40;55.40;;;;;;5011728;28;20020;-74
2022/01/29 01:50:03;;;;;;;;;;;14.40;55.40;;;;;;5011544;28;19925;-74
2022/01/29 01:52:31;;;;;;;;;;;14.40;55.40;;;;;;5011720;28;20405;-74
2022/01/29 01:54:58;;;;;;;;;;;14.30;55.40;;;;;;5011577;28;19980;-74
2022/01/29 01:57:24;;;;;;;;;;;14.30;56.00;;;;;;5011601;28;20020;-73
2022/01/29 01:59:51;;;;;;;;;;;14.30;55.40;;;;;;5011792;28;19925;-74
2022/01/29 02:02:18;;;;;;;;;;;14.30;55.50;;;;;;5011599;28;20011;-74
2022/01/29 02:04:44;;;;;;;;;;;14.30;55.50;;;;;;5011764;28;20417;-74
2022/01/29 02:07:11;;;;;;;;;;;14.30;55.50;;;;;;5011443;28;20016;-74
2022/01/29 02:09:39;;;;;;;;;;;14.30;55.50;;;;;;5011053;28;19932;-74
2022/01/29 02:12:08;;;;;;;;;;;14.30;55.50;;;;;;5011572;28;19933;-74
2022/01/29 02:14:35;;;;;;;;;;;14.30;55.50;;;;;;5011592;28;19964;-74
2022/01/29 02:17:02;;;;;;;;;;;14.30;55.50;;;;;;5011320;28;20374;-74
2022/01/29 02:19:29;;;;;;;;;;;14.30;55.50;;;;;;5010564;28;19948;-73
2022/01/29 02:21:57;;;;;;;;;;;14.30;55.50;;;;;;5011475;28;19991;-74
2022/01/29 02:24:24;;;;;;;;;;;14.30;55.50;;;;;;5010564;28;19983;-74
2022/01/29 02:26:50;;;;;;;;;;;14.30;55.50;;;;;;5011167;28;20461;-74
2022/01/29 02:29:18;;;;;;;;;;;14.30;55.50;;;;;;5010720;28;20012;-74
2022/01/29 02:31:46;;;;;;;;;;;14.30;55.50;;;;;;5012266;28;19925;-74
2022/01/29 02:34:12;;;;;;;;;;;14.30;55.50;;;;;;5011116;28;20008;-74
2022/01/29 02:36:39;;;;;;;;;;;14.30;55.50;;;;;;5011106;28;20012;-74
2022/01/29 02:39:07;;;;;;;;;;;14.30;55.50;;;;;;5010687;28;19987;-73
2022/01/29 02:41:34;;;;;;;;;;;14.20;55.50;;;;;;5011102;28;20329;-75
2022/01/29 02:44:04;;;;;;;;;;;14.30;55.50;;;;;;5011009;28;19929;-74
2022/01/29 02:46:47;;;;;;;;;;;14.30;55.50;;;;;;5011004;28;19929;-74
2022/01/29 02:49:14;;;;;;;;;;;14.30;55.50;;;;;;5010676;28;19979;-74
2022/01/29 02:51:43;;;;;;;;;;;14.30;55.50;;;;;;5010993;28;20024;-74
2022/01/29 02:54:11;;;;;;;;;;;14.30;55.50;;;;;;5010913;28;20008;-73
2022/01/29 02:56:38;;;;;;;;;;;14.30;55.50;;;;;;5010902;28;20008;-74
2022/01/29 02:59:04;;;;;;;;;;;14.20;55.50;;;;;;5010477;28;19976;-74
2022/01/29 03:01:31;;;;;;;;;;;14.30;55.50;;;;;;5010933;28;20005;-73
2022/01/29 03:03:57;;;;;;;;;;;14.30;55.50;;;;;;5010903;28;19976;-75
2022/01/29 03:06:24;;;;;;;;;;;14.30;55.50;;;;;;5010802;28;20036;-72
2022/01/29 03:08:52;;;;;;;;;;;14.30;55.50;;;;;;5010867;28;20008;-74
2022/01/29 03:11:20;;;;;;;;;;;14.30;55.60;;;;;;5010674;28;19937;-74
2022/01/29 03:13:46;;;;;;;;;;;14.30;55.50;;;;;;5010897;28;20020;-73
2022/01/29 03:16:13;;;;;;;;;;;14.30;55.50;;;;;;5010484;28;19936;-74
2022/01/29 03:18:39;;;;;;;;;;;14.30;55.50;;;;;;5011859;28;20015;-75
2022/01/29 03:21:06;;;;;;;;;;;14.30;55.50;;;;;;5010729;28;20016;-74
2022/01/29 03:23:32;;;;;;;;;;;14.30;55.50;;;;;;5010553;28;20022;-72
2022/01/29 03:26:00;;;;;;;;;;;14.30;55.50;;;;;;5010470;28;20000;-73
2022/01/29 03:28:28;;;;;;;;;;;14.40;55.50;;;;;;5010778;28;19937;-74
2022/01/29 03:30:55;;;;;;;;;;;14.30;55.40;;;;;;5013321;28;20012;-74
2022/01/29 03:33:21;;;;;;;;;;;14.40;55.40;;;;;;5014049;28;20413;-74
2022/01/29 03:35:48;;;;;;;;;;;14.40;55.40;;;;;;5014042;28;19932;-74
2022/01/29 03:38:15;;;;;;;;;;;14.40;55.40;;;;;;5014100;28;20113;-74
2022/01/29 03:40:42;;;;;;;;;;;14.40;55.40;;;;;;5013922;28;19956;-73
2022/01/29 03:43:12;;;;;;;;;;;14.40;55.40;;;;;;5013672;28;19930;-74
2022/01/29 03:45:40;;;;;;;;;;;14.50;55.50;;;;;;5013752;28;19988;-73
2022/01/29 03:48:07;;;;;;;;;;;14.50;55.50;;;;;;5013773;28;20017;-74
2022/01/29 03:50:33;;;;;;;;;;;14.40;55.30;;;;;;5013708;28;20306;-73
2022/01/29 03:53:00;;;;;;;;;;;14.50;55.40;;;;;;5013473;28;20430;-74
2022/01/29 03:55:27;;;;;;;;;;;14.50;55.40;;;;;;5013654;28;19930;-74
2022/01/29 03:57:53;;;;;;;;;;;14.50;55.40;;;;;;5013799;28;20005;-74
2022/01/29 04:00:20;;;;;;;;;;;14.50;55.40;;;;;;5013844;28;19929;-74
2022/01/29 04:02:48;;;;;;;;;;;14.50;55.40;;;;;;5013517;28;19936;-74
2022/01/29 04:05:14;;;;;;;;;;;14.50;55.30;;;;;;5013238;28;19968;-74
2022/01/29 04:07:41;;;;;;;;;;;14.60;55.40;;;;;;5013408;28;20015;-74
2022/01/29 04:10:08;;;;;;;;;;;14.60;55.40;;;;;;5013146;28;19976;-73
2022/01/29 04:12:40;;;;;;;;;;;14.60;55.30;;;;;;5012757;28;19968;-73
2022/01/29 04:15:07;;;;;;;;;;;14.60;55.40;;;;;;5013886;28;19987;-74
2022/01/29 04:17:34;;;;;;;;;;;14.60;55.30;;;;;;5012708;28;20063;-72
2022/01/29 04:20:02;;;;;;;;;;;14.60;55.30;;;;;;5010185;28;19925;-74
2022/01/29 04:22:29;;;;;;;;;;;14.60;55.30;;;;;;5013785;28;19983;-74
2022/01/29 04:24:55;;;;;;;;;;;14.60;55.30;;;;;;5013792;28;20008;-74
2022/01/29 04:27:31;;;;;;;;;;;14.70;55.30;;;;;;5012703;28;20011;-74
2022/01/29 04:30:01;;;;;;;;;;;16.40;56.30;;;;;;5013755;28;19925;-74
2022/01/29 04:32:43;;;;;;;;;;;14.70;55.30;;;;;;5012835;28;20028;-74
2022/01/29 04:35:11;;;;;;;;;;;14.70;55.30;;;;;;5011151;28;19961;-74
2022/01/29 04:37:38;;;;;;;;;;;14.70;55.30;;;;;;5012493;28;20004;-74
2022/01/29 04:40:05;;;;;;;;;;;14.70;55.30;;;;;;5012487;28;20364;-74
2022/01/29 04:42:32;;;;;;;;;;;14.70;55.30;;;;;;5011321;28;19926;-74
2022/01/29 04:44:59;;;;;;;;;;;14.70;55.30;;;;;;5012481;28;19925;-73
2022/01/29 04:47:25;;;;;;;;;;;14.70;55.20;;;;;;5013120;28;20316;-74
2022/01/29 04:49:52;;;;;;;;;;;14.70;55.20;;;;;;5012069;28;19932;-73
2022/01/29 04:52:20;;;;;;;;;;;14.80;55.30;;;;;;5011984;28;20012;-74
2022/01/29 04:54:47;;;;;;;;;;;14.70;55.20;;;;;;5012333;28;20122;-74
2022/01/29 04:57:14;;;;;;;;;;;14.80;55.20;;;;;;5012239;28;20458;-73
2022/01/29 04:59:40;;;;;;;;;;;14.80;55.30;;;;;;5009833;28;19976;-74
2022/01/29 05:02:07;;;;;;;;;;;14.80;55.20;;;;;;5010285;28;20354;-73
2022/01/29 05:04:33;;;;;;;;;;;14.80;55.20;;;;;;5011574;28;20021;-74
2022/01/29 05:07:00;;;;;;;;;;;14.80;55.20;;;;;;5009375;28;19925;-73
2022/01/29 05:09:28;;;;;;;;;;;14.80;55.20;;;;;;5012724;28;19929;-74
2022/01/29 05:12:00;;;;;;;;;;;14.80;55.20;;;;;;5012885;28;19926;-74
2022/01/29 05:14:36;;;;;;;;;;;14.80;55.20;;;;;;5012213;28;19929;-74
2022/01/29 05:27:57;;;;;;;;;;;14.80;55.20;;;;;;5012246;28;19933;-74
2022/01/29 05:30:24;;;;;;;;;;;14.80;55.20;;;;;;5011876;28;19932;-74
2022/01/29 05:32:50;;;;;;;;;;;14.80;55.20;;;;;;5011822;28;20368;-74
2022/01/29 05:35:17;;;;;;;;;;;14.80;55.20;;;;;;5011759;28;20012;-74
2022/01/29 05:37:45;;;;;;;;;;;14.80;55.20;;;;;;5012863;28;19931;-74
2022/01/29 05:40:14;;;;;;;;;;;14.80;55.20;;;;;;5011554;28;19929;-72
2022/01/29 05:42:40;;;;;;;;;;;14.80;55.20;;;;;;5011650;28;20021;-72
2022/01/29 05:45:07;;;;;;;;;;;14.80;55.20;;;;;;5011899;28;20020;-74
2022/01/29 05:47:35;;;;;;;;;;;14.80;55.20;;;;;;5011453;28;20565;-74
2022/01/29 05:50:01;;;;;;;;;;;14.90;55.20;;;;;;5011495;28;19926;-74
2022/01/29 05:52:28;;;;;;;;;;;14.80;55.20;;;;;;5011704;28;19972;-74
2022/01/29 05:54:55;;;;;;;;;;;14.80;55.20;;;;;;5011790;28;20008;-73
2022/01/29 05:57:22;;;;;;;;;;;14.80;55.20;;;;;;5011546;28;20021;-74
2022/01/29 05:59:49;;;;;;;;;;;14.80;55.20;;;;;;5011736;28;20422;-74
2022/01/29 06:02:16;;;;;;;;;;;14.80;55.20;;;;;;5010989;28;20020;-74
2022/01/29 06:04:42;;;;;;;;;;;14.80;55.20;;;;;;5011649;28;20008;-74
2022/01/29 06:07:09;;;;;;;;;;;14.80;55.20;;;;;;5011439;28;19932;-73
2022/01/29 06:09:35;;;;;;;;;;;14.90;55.20;;;;;;5011492;28;19996;-74
2022/01/29 06:12:02;;;;;;;;;;;14.90;55.20;;;;;;5012627;28;19925;-74
2022/01/29 06:14:30;;;;;;;;;;;14.90;55.20;;;;;;5011582;28;20016;-74
2022/01/29 06:16:57;;;;;;;;;;;14.90;55.20;;;;;;4994714;28;20012;-74
2022/01/29 06:19:23;;;;;;;;;;;16.40;56.10;;;;;;5011376;28;20462;-74
2022/01/29 06:21:50;;;;;;;;;;;15.80;55.70;;;;;;5011094;28;20013;-74
2022/01/29 06:24:17;;;;;;;;;;;14.90;55.20;;;;;;5010872;28;19926;-74
2022/01/29 06:26:43;;;;;;;;;;;14.90;55.20;;;;;;5011252;28;20024;-73
2022/01/29 06:29:10;;;;;;;;;;;14.90;55.20;;;;;;5012431;28;19948;-74
2022/01/29 06:31:38;;;;;;;;;;;14.90;55.20;;;;;;5010328;28;19932;-74
2022/01/29 06:34:04;;;;;;;;;;;14.90;55.20;;;;;;5010851;28;19975;-74
2022/01/29 06:36:31;;;;;;;;;;;14.90;55.20;;;;;;5010503;28;20032;-74
2022/01/29 06:38:58;;;;;;;;;;;14.90;55.20;;;;;;5010951;28;20016;-74
2022/01/29 06:41:24;;;;;;;;;;;14.90;55.20;;;;;;5007861;28;20012;-73
2022/01/29 06:43:51;;;;;;;;;;;14.90;55.20;;;;;;5010804;28;19932;-74
2022/01/29 06:46:17;;;;;;;;;;;14.90;55.20;;;;;;5011631;28;19930;-74
2022/01/29 06:48:45;;;;;;;;;;;14.90;55.20;;;;;;5010457;28;20434;-73
2022/01/29 06:51:12;;;;;;;;;;;14.90;55.20;;;;;;5010470;28;19945;-72
2022/01/29 06:53:38;;;;;;;;;;;14.90;55.20;;;;;;5010533;28;20119;-74
2022/01/29 06:56:07;;;;;;;;;;;14.90;55.20;;;;;;5007831;28;20449;-74
2022/01/29 06:58:34;;;;;;;;;;;14.90;55.20;;;;;;5010479;28;19925;-73
2022/01/29 07:01:01;;;;;;;;;;;14.90;55.20;;;;;;5010720;28;20020;-74
2022/01/29 07:03:27;;;;;;;;;;;14.90;55.20;;;;;;4991223;28;20012;-74
2022/01/29 07:05:55;;;;;;;;;;;14.90;55.20;;;;;;4994264;28;20012;-73
2022/01/29 07:08:22;;;;;;;;;;;15.00;55.20;;;;;;4996208;28;20426;-74
2022/01/29 07:10:49;;;;;;;;;;;14.90;55.20;;;;;;4994800;28;19926;-74
2022/01/29 07:13:16;;;;;;;;;;;14.90;55.20;;;;;;4995135;28;20016;-74
2022/01/29 07:15:42;;;;;;;;;;;15.00;55.30;;;;;;4994886;28;20025;-72
2022/01/29 07:18:09;;;;;;;;;;;15.00;55.20;;;;;;4994924;28;20275;-74
2022/01/29 07:20:36;;;;;;;;;;;15.00;55.20;;;;;;4994548;28;20005;-73
2022/01/29 07:23:06;;;;;;;;;;;15.00;55.20;;;;;;4994944;28;20013;-74
2022/01/29 07:25:33;;;;;;;;;;;15.00;55.20;;;;;;4994947;28;20017;-74
2022/01/29 07:27:59;;;;;;;;;;;15.00;55.20;;;;;;4994765;28;20360;-74
2022/01/29 07:30:26;;;;;;;;;;;15.00;55.20;;;;;;5008444;28;19925;-72
2022/01/29 07:32:52;;;;;;;;;;;15.00;55.20;;;;;;5014769;28;19925;-72
2022/01/29 07:35:19;;;;;;;;;;;15.00;55.20;;;;;;5014486;28;19932;-72
2022/01/29 07:37:45;;;;;;;;;;;15.00;55.20;;;;;;5014266;28;20032;-72
2022/01/29 07:40:13;;;;;;;;;;;15.00;55.20;;;;;;5013589;28;19932;-71
2022/01/29 07:42:40;;;;;;;;;;;15.00;55.20;;;;;;5013402;28;19932;-71
2022/01/29 07:45:07;;;;;;;;;;;15.00;55.20;;;;;;5011237;28;20012;-72
2022/01/29 07:47:34;;;;;;;;;;;15.00;55.20;;;;;;5013516;28;19932;-72
2022/01/29 07:50:00;;;;;;;;;;;15.00;55.20;;;;;;5013480;28;19933;-72
2022/01/29 07:52:27;;;;;;;;;;;15.00;55.80;;;;;;5010982;28;20020;-72
2022/01/29 07:54:54;;;;;;;;;;;15.00;55.20;;;;;;5013344;28;20400;-71
2022/01/29 07:57:22;;;;;;;;;;;15.00;55.20;;;;;;5013086;28;19977;-71
2022/01/29 07:59:49;;;;;;;;;;;15.00;55.20;;;;;;5012213;28;19925;-72
2022/01/29 08:02:16;;;;;;;;;;;15.10;55.30;;;;;;5010813;28;19936;-71
2022/01/29 08:04:42;;;;;;;;;;;15.10;55.20;;;;;;5013120;28;20281;-72
2022/01/29 08:07:09;;;;;;;;;;;15.10;55.20;;;;;;5014033;28;19959;-71
2022/01/29 08:09:35;;;;;;;;;;;15.10;55.20;;;;;;5012956;28;20000;-71
2022/01/29 08:12:02;;;;;;;;;;;15.10;55.20;;;;;;5012680;28;19932;-70
2022/01/29 08:14:30;;;;;;;;;;;15.10;55.20;;;;;;5013232;28;19932;-72
2022/01/29 08:16:56;;;;;;;;;;;15.20;55.20;;;;;;5012589;28;19932;-72
2022/01/29 08:19:23;;;;;;;;;;;15.20;55.10;;;;;;5013099;28;19926;-72
2022/01/29 08:21:50;;;;;;;;;;;15.20;55.10;;;;;;5012779;28;19929;-71
2022/01/29 08:24:17;;;;;;;;;;;15.20;55.10;;;;;;5013552;28;19929;-72
2022/01/29 08:26:43;;;;;;;;;;;15.20;55.10;;;;;;5012669;28;20305;-71
2022/01/29 08:29:10;;;;;;;;;;;15.30;55.10;;;;;;5014257;28;20009;-72
2022/01/29 08:31:38;;;;;;;;;;;15.30;55.10;;;;;;5013326;28;19925;-72
2022/01/29 08:34:05;;;;;;;;;;;15.30;55.10;;;;;;5013869;28;20017;-73
2022/01/29 08:36:31;;;;;;;;;;;15.30;55.00;;;;;;5012902;28;20398;-73
2022/01/29 08:38:58;;;;;;;;;;;15.30;55.00;;;;;;5013075;28;19969;-74
2022/01/29 08:41:24;;;;;;;;;;;15.30;55.10;;;;;;5013260;28;20008;-73
2022/01/29 08:43:51;;;;;;;;;;;15.30;55.00;;;;;;5013219;28;20392;-73
2022/01/29 08:46:18;;;;;;;;;;;15.40;55.10;;;;;;5012702;28;20024;-73
2022/01/29 08:48:46;;;;;;;;;;;15.40;55.10;;;;;;5013151;28;20016;-73
2022/01/29 08:51:12;;;;;;;;;;;15.40;55.00;;;;;;5012870;28;20466;-74
2022/01/29 08:53:41;;;;;;;;;;;15.40;55.00;;;;;;5012577;28;20013;-73
2022/01/29 08:56:07;;;;;;;;;;;15.40;55.00;;;;;;5012662;28;20536;-73
2022/01/29 08:58:34;;;;;;;;;;;15.40;54.90;;;;;;5012799;28;19930;-74
2022/01/29 09:01:01;;;;;;;;;;;15.50;55.00;;;;;;5012794;28;20025;-73
2022/01/29 09:03:27;;;;;;;;;;;15.50;55.20;;;;;;5013727;28;19926;-72
2022/01/29 09:05:55;;;;;;;;;;;15.50;55.00;;;;;;5013317;28;19929;-74
2022/01/29 09:08:22;;;;;;;;;;;15.50;55.00;;;;;;5012483;28;20004;-74
2022/01/29 09:10:48;;;;;;;;;;;15.50;55.00;;;;;;5018666;28;20012;-74
2022/01/29 09:13:15;;;;;;;;;;;15.50;55.00;;;;;;5017955;28;19972;-73
2022/01/29 09:15:42;;;;;;;;;;;15.50;55.10;;;;;;5013061;28;19965;-72
2022/01/29 09:18:08;;;;;;;;;;;15.50;55.00;;;;;;5033119;28;19925;-73
2022/01/29 09:20:35;;;;;;;;;;;15.50;55.00;;;;;;5032004;28;19925;-73
2022/01/29 09:23:03;;;;;;;;;;;15.60;55.10;;;;;;5032265;28;20035;-74
2022/01/29 09:25:30;;;;;;;;;;;15.60;55.10;;;;;;5031550;28;20015;-74
2022/01/29 09:27:57;;;;;;;;;;;15.60;55.10;;;;;;5030414;28;19975;-74
2022/01/29 09:30:23;;;;;;;;;;;15.60;55.10;;;;;;5012058;28;20032;-73
2022/01/29 09:32:50;;;;;;;;;;;15.60;55.00;;;;;;5010545;28;20008;-73
2022/01/29 09:35:17;;;;;;;;;;;15.60;55.00;;;;;;5012282;28;20016;-73
2022/01/29 09:37:43;;;;;;;;;;;15.60;55.00;;;;;;5011735;28;19932;-74
2022/01/29 09:40:12;;;;;;;;;;;15.60;55.00;;;;;;5008080;28;19926;-74
2022/01/29 09:42:39;;;;;;;;;;;15.60;55.00;;;;;;5001317;28;19930;-73
2022/01/29 09:45:07;;;;;;;;;;;15.70;55.00;;;;;;4992481;28;20342;-74
2022/01/29 09:47:33;;;;;;;;;;;15.70;55.00;;;;;;4991963;28;20374;-74
2022/01/29 09:50:00;;;;;;;;;;;15.70;55.00;;;;;;5003778;28;20008;-74
2022/01/29 09:52:26;;;;;;;;;;;15.70;55.00;;;;;;5011524;28;20121;-74
2022/01/29 09:54:53;;;;;;;;;;;15.70;55.50;;;;;;5011907;28;20012;-73
2022/01/29 09:57:21;;;;;;;;;;;15.70;55.00;;;;;;5011571;28;19973;-73
2022/01/29 09:59:50;;;;;;;;;;;15.70;54.90;;;;;;5012974;28;19925;-72
2022/01/29 10:02:17;;;;;;;;;;;15.70;54.90;;;;;;5011524;28;19936;-73
2022/01/29 10:04:47;;;;;;;;;;;15.80;55.00;;;;;;5011807;28;20008;-73
2022/01/29 10:07:14;;;;;;;;;;;15.80;55.00;;;;;;5011537;28;19969;-73
2022/01/29 10:09:41;;;;;;;;;;;15.80;55.00;;;;;;5012626;28;20440;-72
2022/01/29 10:12:31;;;;;;;;;;;15.80;55.00;;;;;;5011241;28;19931;-72
2022/01/29 10:15:00;;;;;;;;;;;15.80;55.00;;;;;;4996946;28;19925;-72
2022/01/29 10:17:45;;;;;;;;;;;15.80;55.00;;;;;;5012400;28;20012;-72
2022/01/29 10:20:13;;;;;;;;;;;15.80;55.00;;;;;;5011504;28;20389;-72
2022/01/29 10:22:40;;;;;;;;;;;15.80;54.90;;;;;;5012384;28;20012;-70
2022/01/29 10:25:07;;;;;;;;;;;15.80;55.00;;;;;;5012784;28;20009;-70
2022/01/29 10:27:33;;;;;;;;;;;15.80;55.00;;;;;;4991823;28;20016;-71
2022/01/29 10:30:02;;;;;;;;;;;15.90;55.00;;;;;;4992626;28;19929;-70
2022/01/29 10:32:29;;;;;;;;;;;15.80;54.90;;;;;;4992760;28;19930;-71
2022/01/29 10:34:56;;;;;;;;;;;15.90;55.00;;;;;;4991852;28;19969;-69
2022/01/29 10:37:23;;;;;;;;;;;16.40;55.20;;;;;;4991538;28;19937;-71
2022/01/29 10:39:50;;;;;;;;;;;15.90;55.20;;;;;;4994137;28;19934;-72
2022/01/29 10:42:17;;;;;;;;;;;15.90;55.10;;;;;;4996909;28;19936;-71
2022/01/29 10:44:44;;;;;;;;;;;15.90;55.70;;;;;;5000101;28;20354;-70
2022/01/29 10:47:12;;;;;;;;;;;15.90;55.00;;;;;;5012425;28;19926;-72
2022/01/29 10:49:45;;;;;;;;;;;15.90;55.00;;;;;;5012668;28;20016;-72
2022/01/29 10:52:12;;;;;;;;;;;15.90;55.00;;;;;;5014078;28;19932;-72
2022/01/29 10:54:39;;;;;;;;;;;15.90;55.00;;;;;;5015795;28;20429;-71
2022/01/29 10:57:06;;;;;;;;;;;15.90;55.00;;;;;;5015960;28;20460;-72
2022/01/29 10:59:33;;;;;;;;;;;15.90;55.00;;;;;;5015818;28;19948;-69
2022/01/29 11:02:00;;;;;;;;;;;15.90;55.00;;;;;;5015617;28;20012;-71
2022/01/29 11:04:29;;;;;;;;;;;15.90;55.00;;;;;;5015932;28;20096;-70
2022/01/29 11:06:57;;;;;;;;;;;15.90;55.00;;;;;;5015102;28;20545;-72
2022/01/29 11:09:24;;;;;;;;;;;15.90;55.60;;;;;;5014176;28;19964;-72
2022/01/29 11:11:51;;;;;;;;;;;15.90;55.00;;;;;;5014848;28;20458;-72
2022/01/29 11:14:18;;;;;;;;;;;15.90;55.10;;;;;;5015010;28;20366;-68
2022/01/29 11:16:45;;;;;;;;;;;15.90;55.00;;;;;;5013711;28;19926;-68
2022/01/29 11:19:11;;;;;;;;;;;15.90;55.00;;;;;;5013818;28;19926;-69
2022/01/29 11:21:39;;;;;;;;;;;15.90;55.10;;;;;;5013977;28;20437;-68
2022/01/29 11:24:07;;;;;;;;;;;15.90;55.00;;;;;;5014232;28;19931;-68
2022/01/29 11:26:34;;;;;;;;;;;15.90;55.10;;;;;;5014544;28;20333;-68
2022/01/29 11:29:19;;;;;;;;;;;15.90;55.00;;;;;;5014572;28;19926;-68
2022/01/29 11:31:46;;;;;;;;;;;15.90;55.00;;;;;;5015241;28;19926;-68
2022/01/29 11:34:19;;;;;;;;;;;15.90;55.00;;;;;;5015133;28;19926;-68
2022/01/29 11:37:06;;;;;;;;;;;15.90;55.00;;;;;;5015228;28;20016;-68
2022/01/29 11:39:36;;;;;;;;;;;15.90;55.00;;;;;;5014444;28;20012;-68
2022/01/29 11:42:21;;;;;;;;;;;15.90;55.00;;;;;;5014751;28;19929;-69
2022/01/29 11:44:48;;;;;;;;;;;15.90;55.00;;;;;;5014339;28;19931;-68
2022/01/29 11:47:36;;;;;;;;;;;15.90;55.00;;;;;;5014996;28;20353;-68
2022/01/29 11:50:21;;;;;;;;;;;15.90;55.00;;;;;;5012843;28;20020;-69
2022/01/29 11:52:54;;;;;;;;;;;15.90;55.00;;;;;;5014856;28;19937;-71
2022/01/29 11:55:32;;;;;;;;;;;15.90;55.00;;;;;;5013868;28;19977;-72
2022/01/29 11:58:29;;;;;;;;;;;15.90;55.00;;;;;;5008853;28;20317;-68
2022/01/29 12:00:55;;;;;;;;;;;15.90;55.00;;;;;;4957661;28;20291;-68
2022/01/29 12:03:43;;;;;;;;;;;15.90;55.00;;;;;;4995943;28;20022;-69
2022/01/29 12:06:11;;;;;;;;;;;15.90;55.00;;;;;;5004437;28;19925;-68
2022/01/29 12:08:42;;;;;;;;;;;15.90;55.00;;;;;;5013851;28;19933;-69
2022/01/29 12:11:09;;;;;;;;;;;15.90;55.00;;;;;;5013449;28;20354;-69
2022/01/29 12:13:36;;;;;;;;;;;15.90;55.10;;;;;;5014606;28;19936;-69
2022/01/29 12:16:03;;;;;;;;;;;15.90;55.10;;;;;;5013202;28;19926;-69
2022/01/29 12:18:31;;;;;;;;;;;15.90;55.10;;;;;;5013674;28;20453;-68
2022/01/29 12:20:58;;;;;;;;;;;15.90;55.30;;;;;;5014665;28;20579;-68
2022/01/29 12:23:25;;;;;;;;;;;15.90;55.40;;;;;;5013253;28;20008;-69
2022/01/29 12:25:54;;;;;;;;;;;16.00;56.00;;;;;;5013257;28;20012;-68
2022/01/29 12:28:20;;;;;;;;;;;15.90;55.70;;;;;;5013183;28;19960;-68
2022/01/29 12:30:47;;;;;;;;;;;16.00;55.70;;;;;;5013434;28;20012;-69
2022/01/29 12:33:14;;;;;;;;;;;16.00;55.60;;;;;;5012866;28;19935;-68
2022/01/29 12:35:41;;;;;;;;;;;16.00;56.10;;;;;;5012907;28;20302;-68
2022/01/29 12:38:08;;;;;;;;;;;16.00;55.50;;;;;;5013419;28;20016;-69
2022/01/29 12:40:39;;;;;;;;;;;16.00;55.50;;;;;;5013221;28;19968;-68
2022/01/29 12:43:22;;;;;;;;;;;16.00;55.60;;;;;;5013520;28;19932;-69
2022/01/29 12:45:49;;;;;;;;;;;16.00;55.60;;;;;;5011845;28;19971;-69
2022/01/29 12:48:15;;;;;;;;;;;16.00;55.60;;;;;;5013351;28;20294;-69
2022/01/29 12:50:42;;;;;;;;;;;16.00;55.60;;;;;;5012387;28;19926;-68
2022/01/29 12:53:09;;;;;;;;;;;16.00;55.60;;;;;;5011932;28;19925;-69
2022/01/29 12:55:36;;;;;;;;;;;16.00;55.70;;;;;;5012189;28;19980;-69
2022/01/29 12:58:02;;;;;;;;;;;16.00;55.70;;;;;;5012312;28;20437;-69
2022/01/29 13:00:30;;;;;;;;;;;16.00;55.70;;;;;;5013363;28;19932;-69
2022/01/29 13:03:02;;;;;;;;;;;15.90;55.60;;;;;;5012047;28;20289;-69
2022/01/29 13:05:29;;;;;;;;;;;15.90;55.70;;;;;;5011837;28;20000;-69
2022/01/29 13:07:55;;;;;;;;;;;15.90;55.70;;;;;;5012890;28;20013;-70
2022/01/29 13:10:22;;;;;;;;;;;15.90;55.80;;;;;;5011294;28;20020;-69
2022/01/29 13:12:49;;;;;;;;;;;15.90;55.80;;;;;;5014198;28;19933;-68
2022/01/29 13:15:15;;;;;;;;;;;16.20;56.10;;;;;;5012748;28;19926;-68
2022/01/29 13:17:44;;;;;;;;;;;18.60;57.50;;;;;;5011894;28;20445;-69
2022/01/29 13:20:11;;;;;;;;;;;15.90;55.90;;;;;;5011543;28;19925;-69
2022/01/29 13:22:40;;;;;;;;;;;15.90;56.00;;;;;;5012999;28;19932;-68
2022/01/29 13:25:07;;;;;;;;;;;15.90;56.00;;;;;;5017614;28;19925;-68
2022/01/29 13:27:35;;;;;;;;;;;15.80;56.00;;;;;;5010303;28;19979;-69
2022/01/29 13:30:11;;;;;;;;;;;15.80;55.90;;;;;;5011781;28;19930;-69
2022/01/29 13:32:38;;;;;;;;;;;15.80;56.00;;;;;;5008936;28;19932;-69
2022/01/29 13:35:16;;;;;;;;;;;15.80;56.10;;;;;;5012998;28;19934;-69
2022/01/29 13:37:43;;;;;;;;;;;15.80;56.00;;;;;;5011101;28;20020;-69
2022/01/29 13:40:17;;;;;;;;;;;15.80;56.10;;;;;;5010597;28;20008;-69
2022/01/29 13:42:52;;;;;;;;;;;15.80;56.10;;;;;;5006390;28;19932;-68
2022/01/29 13:45:20;;;;;;;;;;;15.80;56.10;;;;;;4992287;28;20017;-69
2022/01/29 13:48:00;;;;;;;;;;;15.80;56.10;;;;;;4992343;28;20390;-69
2022/01/29 13:50:28;;;;;;;;;;;15.80;56.20;;;;;;4993380;28;20016;-70
2022/01/29 13:53:02;;;;;;;;;;;15.80;56.10;;;;;;4991707;28;19980;-67
2022/01/29 13:55:28;;;;;;;;;;;15.80;56.10;;;;;;4992826;28;20016;-67
2022/01/29 13:58:02;;;;;;;;;;;15.80;56.20;;;;;;4992207;28;20016;-69
2022/01/29 14:00:28;;;;;;;;;;;15.80;56.20;;;;;;4993261;28;20008;-69
2022/01/29 14:02:55;;;;;;;;;;;15.80;56.30;;;;;;5008315;28;19931;-71
2022/01/29 14:05:24;;;;;;;;;;;15.90;56.30;;;;;;5011535;28;20028;-69
2022/01/29 14:07:52;;;;;;;;;;;15.90;56.30;;;;;;5011361;28;19925;-69
2022/01/29 14:10:19;;;;;;;;;;;15.90;56.30;;;;;;5012808;28;19971;-69
2022/01/29 14:12:49;;;;;;;;;;;15.90;56.30;;;;;;5012515;28;19926;-70
2022/01/29 14:15:16;;;;;;;;;;;15.90;56.30;;;;;;5010724;28;19965;-71
2022/01/29 14:17:42;;;;;;;;;;;15.90;56.30;;;;;;5011395;28;19930;-69
2022/01/29 14:20:10;;;;;;;;;;;15.90;56.30;;;;;;5011272;28;19932;-69
2022/01/29 14:22:36;;;;;;;;;;;15.90;56.30;;;;;;5011407;28;19975;-70
2022/01/29 14:25:05;;;;;;;;;;;15.80;56.30;;;;;;5011475;28;19932;-69
2022/01/29 14:27:32;;;;;;;;;;;15.90;56.90;;;;;;5011301;28;19929;-70
2022/01/29 14:29:59;;;;;;;;;;;15.90;56.40;;;;;;5011462;28;19929;-69
2022/01/29 14:32:26;;;;;;;;;;;15.80;56.30;;;;;;5010926;28;20387;-69